Time,TemperatureF,DewpointF,PressureIn,WindDirection,WindDirectionDegrees,WindSpeedMPH,WindSpeedGustMPH,Humidity,HourlyPrecipIn,Conditions,Clouds,dailyrainin,SoftwareType,DateUTC
2013-07-23 00:01:00,80.1,74.5,30.14,WNW,292,0.0,-999.0,83,-99.99,,,-99.99,meteohub,2013-07-23 04:01:00,
2013-07-23 00:03:00,79.0,74.8,30.14,WNW,292,0.0,-999.0,87,-99.99,,,-99.99,meteohub,2013-07-23 04:03:00,
2013-07-23 00:07:00,80.1,74.5,30.14,WNW,292,0.0,-999.0,83,-99.99,,,-99.99,meteohub,2013-07-23 04:07:00,
2013-07-23 00:09:00,80.1,74.5,30.14,WNW,292,0.0,-999.0,83,-99.99,,,-99.99,meteohub,2013-07-23 04:09:00,
2013-07-23 00:14:00,80.1,74.5,30.14,WNW,292,0.0,-999.0,83,-99.99,,,-99.99,meteohub,2013-07-23 04:14:00,
2013-07-23 00:19:00,80.1,74.5,30.14,WNW,292,0.0,-999.0,83,-99.99,,,-99.99,meteohub,2013-07-23 04:19:00,
2013-07-23 00:24:00,80.1,76.1,30.14,NNW,337,0.0,-999.0,88,-99.99,,,-99.99,meteohub,2013-07-23 04:24:00,
2013-07-23 00:29:00,80.1,74.8,30.14,NNW,337,0.0,-999.0,84,-99.99,,,-99.99,meteohub,2013-07-23 04:29:00,
2013-07-23 00:34:00,80.1,74.8,30.14,NNW,337,0.0,-999.0,84,-99.99,,,-99.99,meteohub,2013-07-23 04:34:00,
2013-07-23 00:39:00,80.1,74.8,30.14,NNW,337,0.0,-999.0,84,-99.99,,,-99.99,meteohub,2013-07-23 04:39:00,
2013-07-23 00:44:00,79.0,75.2,30.14,NNW,337,0.0,-999.0,88,-99.99,,,-99.99,meteohub,2013-07-23 04:44:00,
2013-07-23 00:50:00,79.0,74.1,30.14,NNW,337,0.0,-999.0,85,-99.99,,,-99.99,meteohub,2013-07-23 04:50:00,
2013-07-23 00:55:00,79.0,74.1,30.14,NNW,337,0.0,-999.0,85,-99.99,,,-99.99,meteohub,2013-07-23 04:55:00,
2013-07-23 01:00:00,79.0,74.1,30.14,NNW,337,0.0,-999.0,85,-99.99,,,-99.99,meteohub,2013-07-23 05:00:00,
2013-07-23 01:05:00,79.0,74.1,30.14,NNW,337,0.0,-999.0,85,-99.99,,,-99.99,meteohub,2013-07-23 05:05:00,
2013-07-23 01:10:00,79.0,74.1,30.14,NNW,337,0.0,-999.0,85,-99.99,,,-99.99,meteohub,2013-07-23 05:10:00,
2013-07-23 01:15:00,79.0,74.5,30.14,NNW,337,1.0,-999.0,86,-99.99,,,-99.99,meteohub,2013-07-23 05:15:00,
2013-07-23 01:20:00,79.0,74.5,30.14,NNW,337,0.0,-999.0,86,-99.99,,,-99.99,meteohub,2013-07-23 05:20:00,
2013-07-23 01:25:00,80.1,75.6,30.14,NNW,337,0.0,-999.0,86,-99.99,,,-99.99,meteohub,2013-07-23 05:25:00,
2013-07-23 01:31:00,80.1,75.6,30.14,NNW,337,0.0,-999.0,86,-99.99,,,-99.99,meteohub,2013-07-23 05:31:00,
2013-07-23 01:36:00,80.1,75.6,30.14,NNW,337,0.0,-999.0,86,-99.99,,,-99.99,meteohub,2013-07-23 05:36:00,
2013-07-23 01:41:00,80.1,76.8,30.14,NNW,337,0.0,-999.0,90,-99.99,,,-99.99,meteohub,2013-07-23 05:41:00,
2013-07-23 01:46:00,80.1,75.2,30.14,NNW,337,0.0,-999.0,85,-99.99,,,-99.99,meteohub,2013-07-23 05:46:00,
2013-07-23 01:51:00,80.1,75.2,30.14,NNW,337,0.0,-999.0,85,-99.99,,,-99.99,meteohub,2013-07-23 05:51:00,
2013-07-23 01:56:00,80.1,75.2,30.14,NNW,337,0.0,-999.0,85,-99.99,,,-99.99,meteohub,2013-07-23 05:56:00,
2013-07-23 02:01:00,80.1,75.2,30.14,South,180,3.0,-999.0,85,-99.99,,,-99.99,meteohub,2013-07-23 06:01:00,
2013-07-23 02:06:00,80.1,75.2,30.14,South,180,2.0,-999.0,85,-99.99,,,-99.99,meteohub,2013-07-23 06:06:00,
2013-07-23 02:11:00,80.1,75.2,30.14,South,180,3.0,-999.0,85,-99.99,,,-99.99,meteohub,2013-07-23 06:11:00,
2013-07-23 02:16:00,80.1,74.8,30.14,South,180,3.0,-999.0,84,-99.99,,,-99.99,meteohub,2013-07-23 06:16:00,
2013-07-23 02:22:00,81.0,75.4,30.14,South,180,4.0,-999.0,83,-99.99,,,-99.99,meteohub,2013-07-23 06:22:00,
2013-07-23 02:27:00,81.0,75.4,30.13,South,180,2.0,-999.0,83,-99.99,,,-99.99,meteohub,2013-07-23 06:27:00,
2013-07-23 02:32:00,81.0,75.4,30.13,South,180,0.0,-999.0,83,-99.99,,,-99.99,meteohub,2013-07-23 06:32:00,
2013-07-23 02:37:00,80.1,75.9,30.13,South,180,0.0,-999.0,87,-99.99,,,-99.99,meteohub,2013-07-23 06:37:00,
2013-07-23 02:42:00,81.0,75.4,30.13,South,180,0.0,-999.0,83,-99.99,,,-99.99,meteohub,2013-07-23 06:42:00,
2013-07-23 02:47:00,81.0,75.4,30.13,South,180,0.0,-999.0,83,-99.99,,,-99.99,meteohub,2013-07-23 06:47:00,
2013-07-23 02:52:00,81.0,75.4,30.13,South,180,0.0,-999.0,83,-99.99,,,-99.99,meteohub,2013-07-23 06:52:00,
2013-07-23 02:57:00,81.0,75.4,30.13,South,180,0.0,-999.0,83,-99.99,,,-99.99,meteohub,2013-07-23 06:57:00,
2013-07-23 03:02:00,81.0,75.4,30.13,South,180,0.0,-999.0,83,-99.99,,,-99.99,meteohub,2013-07-23 07:02:00,
2013-07-23 03:07:00,81.0,75.4,30.13,South,180,0.0,-999.0,83,-99.99,,,-99.99,meteohub,2013-07-23 07:07:00,
2013-07-23 03:12:00,80.1,76.1,30.12,South,180,0.0,-999.0,88,-99.99,,,-99.99,meteohub,2013-07-23 07:12:00,
2013-07-23 03:17:00,81.0,75.7,30.12,South,180,0.0,-999.0,84,-99.99,,,-99.99,meteohub,2013-07-23 07:17:00,
2013-07-23 03:22:00,81.0,75.7,30.12,South,180,0.0,-999.0,84,-99.99,,,-99.99,meteohub,2013-07-23 07:22:00,
2013-07-23 03:27:00,80.1,74.8,30.12,South,180,0.0,-999.0,84,-99.99,,,-99.99,meteohub,2013-07-23 07:27:00,
2013-07-23 03:32:00,80.1,74.8,30.12,South,180,0.0,-999.0,84,-99.99,,,-99.99,meteohub,2013-07-23 07:32:00,
2013-07-23 03:37:00,80.1,74.8,30.12,South,180,0.0,-999.0,84,-99.99,,,-99.99,meteohub,2013-07-23 07:37:00,
2013-07-23 03:42:00,80.1,74.8,30.12,SE,135,0.0,-999.0,84,-99.99,,,-99.99,meteohub,2013-07-23 07:42:00,
2013-07-23 03:47:00,80.1,76.1,30.11,SE,135,2.0,-999.0,88,-99.99,,,-99.99,meteohub,2013-07-23 07:47:00,
2013-07-23 03:52:00,80.1,75.2,30.11,SE,135,5.0,-999.0,85,-99.99,,,-99.99,meteohub,2013-07-23 07:52:00,
2013-07-23 03:57:00,80.1,75.2,30.11,SE,135,4.0,-999.0,85,-99.99,,,-99.99,meteohub,2013-07-23 07:57:00,
2013-07-23 04:02:00,80.1,74.8,30.09,SE,135,3.0,-999.0,84,-99.99,,,-99.99,meteohub,2013-07-23 08:02:00,
2013-07-23 04:07:00,80.1,74.8,30.09,SE,135,2.0,-999.0,84,-99.99,,,-99.99,meteohub,2013-07-23 08:07:00,
2013-07-23 04:12:00,80.1,75.2,30.09,NE,45,3.0,-999.0,85,-99.99,,,-99.99,meteohub,2013-07-23 08:12:00,
2013-07-23 04:17:00,80.1,75.2,30.09,NE,45,1.0,-999.0,85,-99.99,,,-99.99,meteohub,2013-07-23 08:17:00,
2013-07-23 04:22:00,79.0,75.4,30.09,NE,45,2.0,-999.0,89,-99.99,,,-99.99,meteohub,2013-07-23 08:22:00,
2013-07-23 04:27:00,80.1,75.6,30.09,NE,45,4.0,-999.0,86,-99.99,,,-99.99,meteohub,2013-07-23 08:27:00,
2013-07-23 04:32:00,80.1,75.6,30.09,NE,45,2.0,-999.0,86,-99.99,,,-99.99,meteohub,2013-07-23 08:32:00,
2013-07-23 04:37:00,79.0,74.8,30.09,NE,45,2.0,-999.0,87,-99.99,,,-99.99,meteohub,2013-07-23 08:37:00,
2013-07-23 04:42:00,79.0,74.8,30.09,NE,45,1.0,-999.0,87,-99.99,,,-99.99,meteohub,2013-07-23 08:42:00,
2013-07-23 04:47:00,79.0,74.8,30.09,NE,45,0.0,-999.0,87,-99.99,,,-99.99,meteohub,2013-07-23 08:47:00,
2013-07-23 04:52:00,79.0,74.8,30.09,NE,45,0.0,-999.0,87,-99.99,,,-99.99,meteohub,2013-07-23 08:52:00,
2013-07-23 04:57:00,79.0,76.5,30.09,NE,45,0.0,-999.0,92,-99.99,,,-99.99,meteohub,2013-07-23 08:57:00,
2013-07-23 05:02:00,79.0,74.8,30.09,NE,45,0.0,-999.0,87,-99.99,,,-99.99,meteohub,2013-07-23 09:02:00,
2013-07-23 05:07:00,79.0,75.2,30.09,NE,45,2.0,-999.0,88,-99.99,,,-99.99,meteohub,2013-07-23 09:07:00,
2013-07-23 05:12:00,79.0,75.2,30.09,NE,45,0.0,-999.0,88,-99.99,,,-99.99,meteohub,2013-07-23 09:12:00,
2013-07-23 05:17:00,79.0,75.2,30.09,NE,45,0.0,-999.0,88,-99.99,,,-99.99,meteohub,2013-07-23 09:17:00,
2013-07-23 05:22:00,79.0,75.4,30.09,NE,45,0.0,-999.0,89,-99.99,,,-99.99,meteohub,2013-07-23 09:22:00,
2013-07-23 05:27:00,79.0,75.4,30.09,NE,45,1.0,-999.0,89,-99.99,,,-99.99,meteohub,2013-07-23 09:27:00,
2013-07-23 05:32:00,78.1,75.9,30.09,NE,45,1.0,-999.0,93,-99.99,,,-99.99,meteohub,2013-07-23 09:32:00,
2013-07-23 05:37:00,79.0,75.4,30.09,NE,45,2.0,-999.0,89,-99.99,,,-99.99,meteohub,2013-07-23 09:37:00,
2013-07-23 05:42:00,79.0,75.2,30.09,NE,45,1.0,-999.0,88,-99.99,,,-99.99,meteohub,2013-07-23 09:42:00,
2013-07-23 05:47:00,79.0,75.2,30.09,NE,45,1.0,-999.0,88,-99.99,,,-99.99,meteohub,2013-07-23 09:47:00,
2013-07-23 05:52:00,79.0,75.2,30.09,NE,45,1.0,-999.0,88,-99.99,,,-99.99,meteohub,2013-07-23 09:52:00,
2013-07-23 05:57:00,79.0,75.2,30.09,NE,45,0.0,-999.0,88,-99.99,,,-99.99,meteohub,2013-07-23 09:57:00,
2013-07-23 06:02:00,79.0,75.2,30.09,NE,45,0.0,-999.0,88,-99.99,,,-99.99,meteohub,2013-07-23 10:02:00,
2013-07-23 06:07:00,78.1,75.6,30.11,NE,45,0.0,-999.0,92,-99.99,,,-99.99,meteohub,2013-07-23 10:07:00,
2013-07-23 06:12:00,79.0,75.2,30.11,NE,45,2.0,-999.0,88,-99.99,,,-99.99,meteohub,2013-07-23 10:12:00,
2013-07-23 06:17:00,79.0,75.4,30.09,NE,45,2.0,-999.0,89,-99.99,,,-99.99,meteohub,2013-07-23 10:17:00,
2013-07-23 06:22:00,79.0,75.4,30.09,NE,45,4.0,-999.0,89,-99.99,,,-99.99,meteohub,2013-07-23 10:22:00,
2013-07-23 06:27:00,79.0,75.7,30.09,NE,45,6.0,-999.0,90,-99.99,,,-99.99,meteohub,2013-07-23 10:27:00,
2013-07-23 06:32:00,79.0,75.7,30.11,NE,45,1.0,-999.0,90,-99.99,,,-99.99,meteohub,2013-07-23 10:32:00,
2013-07-23 06:37:00,79.0,75.7,30.11,NE,45,1.0,-999.0,90,-99.99,,,-99.99,meteohub,2013-07-23 10:37:00,
2013-07-23 06:42:00,79.0,77.2,30.12,NE,45,3.0,-999.0,94,-99.99,,,-99.99,meteohub,2013-07-23 10:42:00,
2013-07-23 06:47:00,79.0,75.7,30.12,NE,45,4.0,-999.0,90,-99.99,,,-99.99,meteohub,2013-07-23 10:47:00,
2013-07-23 06:52:00,79.0,75.7,30.12,NE,45,2.0,-999.0,90,-99.99,,,-99.99,meteohub,2013-07-23 10:52:00,
2013-07-23 06:57:00,79.0,75.7,30.12,NE,45,2.0,-999.0,90,-99.99,,,-99.99,meteohub,2013-07-23 10:57:00,
2013-07-23 07:02:00,79.0,75.7,30.12,NE,45,2.0,-999.0,90,-99.99,,,-99.99,meteohub,2013-07-23 11:02:00,
2013-07-23 07:07:00,79.0,75.7,30.12,NE,45,3.0,-999.0,90,-99.99,,,-99.99,meteohub,2013-07-23 11:07:00,
2013-07-23 07:12:00,79.0,75.7,30.12,NE,45,0.0,-999.0,90,-99.99,,,-99.99,meteohub,2013-07-23 11:12:00,
2013-07-23 07:17:00,79.0,77.4,30.12,NE,45,2.0,-999.0,95,-99.99,,,-99.99,meteohub,2013-07-23 11:17:00,
2013-07-23 07:22:00,79.0,76.1,30.12,NE,45,2.0,-999.0,91,-99.99,,,-99.99,meteohub,2013-07-23 11:22:00,
2013-07-23 07:27:00,80.1,77.2,30.13,NE,45,0.0,-999.0,91,-99.99,,,-99.99,meteohub,2013-07-23 11:27:00,
2013-07-23 07:32:00,80.1,76.8,30.13,NE,45,3.0,-999.0,90,-99.99,,,-99.99,meteohub,2013-07-23 11:32:00,
2013-07-23 07:37:00,80.1,76.1,30.13,NE,45,6.0,-999.0,88,-99.99,,,-99.99,meteohub,2013-07-23 11:37:00,
2013-07-23 07:42:00,80.1,75.2,30.13,NE,45,3.0,-999.0,85,-99.99,,,-99.99,meteohub,2013-07-23 11:42:00,
2013-07-23 07:47:00,81.0,76.1,30.13,NE,45,3.0,-999.0,85,-99.99,,,-99.99,meteohub,2013-07-23 11:47:00,
2013-07-23 07:52:00,80.1,76.1,30.13,SE,135,6.0,-999.0,88,-99.99,,,-99.99,meteohub,2013-07-23 11:52:00,
2013-07-23 07:57:00,81.0,75.4,30.13,SE,135,5.0,-999.0,83,-99.99,,,-99.99,meteohub,2013-07-23 11:57:00,
2013-07-23 08:02:00,82.0,76.3,30.13,SE,135,7.0,-999.0,83,-99.99,,,-99.99,meteohub,2013-07-23 12:02:00,
2013-07-23 08:07:00,81.0,74.7,30.13,SE,135,6.0,-999.0,81,-99.99,,,-99.99,meteohub,2013-07-23 12:07:00,
2013-07-23 08:12:00,81.0,74.7,30.13,SE,135,6.0,-999.0,81,-99.99,,,-99.99,meteohub,2013-07-23 12:12:00,
2013-07-23 08:17:00,82.0,75.6,30.14,SE,135,4.0,-999.0,81,-99.99,,,-99.99,meteohub,2013-07-23 12:17:00,
2013-07-23 08:22:00,82.0,75.2,30.14,NE,45,4.0,-999.0,80,-99.99,,,-99.99,meteohub,2013-07-23 12:22:00,
2013-07-23 08:27:00,82.0,76.3,30.14,SE,135,3.0,-999.0,83,-99.99,,,-99.99,meteohub,2013-07-23 12:27:00,
2013-07-23 08:32:00,82.0,73.8,30.14,SE,135,5.0,-999.0,76,-99.99,,,-99.99,meteohub,2013-07-23 12:32:00,
2013-07-23 08:37:00,82.0,74.5,30.14,SE,135,6.0,-999.0,78,-99.99,,,-99.99,meteohub,2013-07-23 12:37:00,
2013-07-23 08:42:00,82.0,73.8,30.14,SE,135,6.0,-999.0,76,-99.99,,,-99.99,meteohub,2013-07-23 12:42:00,
2013-07-23 08:47:00,82.0,75.2,30.14,SE,135,9.0,-999.0,80,-99.99,,,-99.99,meteohub,2013-07-23 12:47:00,
2013-07-23 08:52:00,82.0,73.8,30.14,SE,135,6.0,-999.0,76,-99.99,,,-99.99,meteohub,2013-07-23 12:52:00,
2013-07-23 08:57:00,82.0,73.8,30.14,SE,135,6.0,-999.0,76,-99.99,,,-99.99,meteohub,2013-07-23 12:57:00,
2013-07-23 09:03:00,82.0,74.1,30.14,SE,135,7.0,-999.0,77,-99.99,,,-99.99,meteohub,2013-07-23 13:03:00,
2013-07-23 09:08:00,82.0,74.8,30.14,SE,135,9.0,-999.0,79,-99.99,,,-99.99,meteohub,2013-07-23 13:08:00,
2013-07-23 09:13:00,82.0,74.5,30.13,SE,135,8.0,-999.0,78,-99.99,,,-99.99,meteohub,2013-07-23 13:13:00,
2013-07-23 09:18:00,82.9,76.1,30.13,SE,135,8.0,-999.0,80,-99.99,,,-99.99,meteohub,2013-07-23 13:18:00,
2013-07-23 09:23:00,82.0,75.9,30.14,SE,135,7.0,-999.0,82,-99.99,,,-99.99,meteohub,2013-07-23 13:23:00,
2013-07-23 09:28:00,82.9,74.7,30.14,SE,135,9.0,-999.0,76,-99.99,,,-99.99,meteohub,2013-07-23 13:28:00,
2013-07-23 09:33:00,82.9,73.8,30.14,NE,45,8.0,-999.0,74,-99.99,,,-99.99,meteohub,2013-07-23 13:33:00,
2013-07-23 09:38:00,82.9,73.0,30.14,SE,135,7.0,-999.0,72,-99.99,,,-99.99,meteohub,2013-07-23 13:38:00,
2013-07-23 09:43:00,82.9,73.8,30.14,SE,135,7.0,-999.0,74,-99.99,,,-99.99,meteohub,2013-07-23 13:43:00,
2013-07-23 09:48:00,82.9,73.8,30.14,SE,135,9.0,-999.0,74,-99.99,,,-99.99,meteohub,2013-07-23 13:48:00,
2013-07-23 09:54:00,84.0,73.6,30.14,SE,135,6.0,-999.0,71,-99.99,,,-99.99,meteohub,2013-07-23 13:54:00,
2013-07-23 09:59:00,84.0,73.9,30.14,SSE,157,4.0,-999.0,72,-99.99,,,-99.99,meteohub,2013-07-23 13:59:00,
2013-07-23 10:04:00,84.0,73.6,30.14,SE,135,6.0,-999.0,71,-99.99,,,-99.99,meteohub,2013-07-23 14:04:00,
2013-07-23 10:09:00,84.0,73.6,30.14,South,180,4.0,-999.0,71,-99.99,,,-99.99,meteohub,2013-07-23 14:09:00,
2013-07-23 10:14:00,84.9,74.1,30.14,SSW,202,0.0,-999.0,70,-99.99,,,-99.99,meteohub,2013-07-23 14:14:00,
2013-07-23 10:19:00,84.9,74.8,30.14,SE,135,6.0,-999.0,72,-99.99,,,-99.99,meteohub,2013-07-23 14:19:00,
2013-07-23 10:24:00,84.0,73.6,30.14,SE,135,0.0,-999.0,71,-99.99,,,-99.99,meteohub,2013-07-23 14:24:00,
2013-07-23 10:29:00,84.0,72.7,30.14,SW,225,7.0,-999.0,69,-99.99,,,-99.99,meteohub,2013-07-23 14:29:00,
2013-07-23 10:34:00,82.9,72.1,30.14,SW,225,6.0,-999.0,70,-99.99,,,-99.99,meteohub,2013-07-23 14:34:00,
2013-07-23 10:39:00,84.0,74.5,30.14,SSW,202,6.0,-999.0,73,-99.99,,,-99.99,meteohub,2013-07-23 14:39:00,
2013-07-23 10:44:00,84.0,73.2,30.14,South,180,5.0,-999.0,70,-99.99,,,-99.99,meteohub,2013-07-23 14:44:00,
2013-07-23 10:50:00,84.0,73.6,30.14,West,270,8.0,-999.0,71,-99.99,,,-99.99,meteohub,2013-07-23 14:50:00,
2013-07-23 10:55:00,84.0,73.6,30.14,WSW,247,7.0,-999.0,71,-99.99,,,-99.99,meteohub,2013-07-23 14:55:00,
2013-07-23 11:00:00,82.9,73.0,30.14,West,270,7.0,-999.0,72,-99.99,,,-99.99,meteohub,2013-07-23 15:00:00,
2013-07-23 11:05:00,82.9,73.0,30.14,SW,225,6.0,-999.0,72,-99.99,,,-99.99,meteohub,2013-07-23 15:05:00,
2013-07-23 11:10:00,82.9,73.0,30.14,West,270,7.0,-999.0,72,-99.99,,,-99.99,meteohub,2013-07-23 15:10:00,
2013-07-23 11:15:00,82.9,74.7,30.14,WSW,247,6.0,-999.0,76,-99.99,,,-99.99,meteohub,2013-07-23 15:15:00,
2013-07-23 11:20:00,82.9,72.5,30.14,SW,225,7.0,-999.0,71,-99.99,,,-99.99,meteohub,2013-07-23 15:20:00,
2013-07-23 11:25:00,84.0,73.6,30.14,West,270,4.0,-999.0,71,-99.99,,,-99.99,meteohub,2013-07-23 15:25:00,
2013-07-23 11:30:00,84.0,73.9,30.14,WSW,247,6.0,-999.0,72,-99.99,,,-99.99,meteohub,2013-07-23 15:30:00,
2013-07-23 11:35:00,84.0,74.8,30.14,SW,225,8.0,-999.0,74,-99.99,,,-99.99,meteohub,2013-07-23 15:35:00,
2013-07-23 11:40:00,82.9,72.5,30.14,West,270,9.0,-999.0,71,-99.99,,,-99.99,meteohub,2013-07-23 15:40:00,
2013-07-23 11:45:00,82.9,73.0,30.14,West,270,8.0,-999.0,72,-99.99,,,-99.99,meteohub,2013-07-23 15:45:00,
2013-07-23 11:50:00,82.9,73.0,30.14,WSW,247,7.0,-999.0,72,-99.99,,,-99.99,meteohub,2013-07-23 15:50:00,
2013-07-23 11:56:00,82.9,73.4,30.14,West,270,9.0,-999.0,73,-99.99,,,-99.99,meteohub,2013-07-23 15:56:00,
2013-07-23 12:01:00,82.9,73.4,30.14,West,270,7.0,-999.0,73,-99.99,,,-99.99,meteohub,2013-07-23 16:01:00,
2013-07-23 12:06:00,82.9,73.4,30.14,West,270,8.0,-999.0,73,-99.99,,,-99.99,meteohub,2013-07-23 16:06:00,
2013-07-23 12:11:00,82.9,74.1,30.14,SW,225,9.0,-999.0,75,-99.99,,,-99.99,meteohub,2013-07-23 16:11:00,
2013-07-23 12:16:00,82.9,71.8,30.14,SW,225,6.0,-999.0,69,-99.99,,,-99.99,meteohub,2013-07-23 16:16:00,
2013-07-23 12:21:00,84.0,74.5,30.14,West,270,6.0,-999.0,73,-99.99,,,-99.99,meteohub,2013-07-23 16:21:00,
2013-07-23 12:26:00,82.9,71.8,30.14,SSW,202,4.0,-999.0,69,-99.99,,,-99.99,meteohub,2013-07-23 16:26:00,
2013-07-23 12:31:00,84.0,73.9,30.14,SW,225,8.0,-999.0,72,-99.99,,,-99.99,meteohub,2013-07-23 16:31:00,
2013-07-23 12:36:00,84.0,73.6,30.13,WSW,247,8.0,-999.0,71,-99.99,,,-99.99,meteohub,2013-07-23 16:36:00,
2013-07-23 12:41:00,82.9,73.0,30.13,West,270,11.0,-999.0,72,-99.99,,,-99.99,meteohub,2013-07-23 16:41:00,
2013-07-23 12:46:00,82.9,73.0,30.13,West,270,10.0,-999.0,72,-99.99,,,-99.99,meteohub,2013-07-23 16:46:00,
2013-07-23 12:51:00,82.9,73.8,30.13,West,270,8.0,-999.0,74,-99.99,,,-99.99,meteohub,2013-07-23 16:51:00,
2013-07-23 12:57:00,82.9,72.5,30.13,WSW,247,8.0,-999.0,71,-99.99,,,-99.99,meteohub,2013-07-23 16:57:00,
2013-07-23 13:02:00,82.9,73.8,30.13,WSW,247,10.0,-999.0,74,-99.99,,,-99.99,meteohub,2013-07-23 17:02:00,
2013-07-23 13:07:00,82.9,75.0,30.13,West,270,7.0,-999.0,77,-99.99,,,-99.99,meteohub,2013-07-23 17:07:00,
2013-07-23 13:12:00,82.9,73.8,30.13,WSW,247,10.0,-999.0,74,-99.99,,,-99.99,meteohub,2013-07-23 17:12:00,
2013-07-23 13:17:00,82.0,72.9,30.12,West,270,8.0,-999.0,74,-99.99,,,-99.99,meteohub,2013-07-23 17:17:00,
2013-07-23 13:22:00,82.9,73.8,30.12,West,270,7.0,-999.0,74,-99.99,,,-99.99,meteohub,2013-07-23 17:22:00,
2013-07-23 13:27:00,82.9,73.8,30.12,WSW,247,9.0,-999.0,74,-99.99,,,-99.99,meteohub,2013-07-23 17:27:00,
2013-07-23 13:32:00,82.9,73.8,30.12,West,270,9.0,-999.0,74,-99.99,,,-99.99,meteohub,2013-07-23 17:32:00,
2013-07-23 13:37:00,82.9,72.5,30.12,WSW,247,10.0,-999.0,71,-99.99,,,-99.99,meteohub,2013-07-23 17:37:00,
2013-07-23 13:42:00,82.9,74.1,30.12,West,270,10.0,-999.0,75,-99.99,,,-99.99,meteohub,2013-07-23 17:42:00,
2013-07-23 13:47:00,82.9,73.8,30.12,WSW,247,9.0,-999.0,74,-99.99,,,-99.99,meteohub,2013-07-23 17:47:00,
2013-07-23 13:53:00,82.9,73.0,30.11,WSW,247,7.0,-999.0,72,-99.99,,,-99.99,meteohub,2013-07-23 17:53:00,
2013-07-23 13:58:00,82.9,73.8,30.11,WSW,247,10.0,-999.0,74,-99.99,,,-99.99,meteohub,2013-07-23 17:58:00,
2013-07-23 14:04:00,82.9,73.4,30.09,WSW,247,7.0,-999.0,73,-99.99,,,-99.99,meteohub,2013-07-23 18:04:00,
2013-07-23 14:09:00,82.9,73.8,30.09,WSW,247,9.0,-999.0,74,-99.99,,,-99.99,meteohub,2013-07-23 18:09:00,
2013-07-23 14:14:00,82.0,72.5,30.09,WSW,247,12.0,-999.0,73,-99.99,,,-99.99,meteohub,2013-07-23 18:14:00,
2013-07-23 14:21:00,82.9,73.0,30.09,WSW,247,10.0,-999.0,72,-99.99,,,-99.99,meteohub,2013-07-23 18:21:00,
2013-07-23 14:26:00,82.9,74.1,30.09,WSW,247,10.0,-999.0,75,-99.99,,,-99.99,meteohub,2013-07-23 18:26:00,
2013-07-23 14:32:00,82.9,73.8,30.09,WSW,247,10.0,-999.0,74,-99.99,,,-99.99,meteohub,2013-07-23 18:32:00,
2013-07-23 14:37:00,82.9,73.0,30.09,West,270,9.0,-999.0,72,-99.99,,,-99.99,meteohub,2013-07-23 18:37:00,
2013-07-23 14:45:00,82.9,73.0,30.09,West,270,7.0,-999.0,72,-99.99,,,-99.99,meteohub,2013-07-23 18:45:00,
2013-07-23 14:50:00,82.9,73.0,30.09,West,270,10.0,-999.0,72,-99.99,,,-99.99,meteohub,2013-07-23 18:50:00,
2013-07-23 14:55:00,82.9,73.0,30.09,WSW,247,9.0,-999.0,72,-99.99,,,-99.99,meteohub,2013-07-23 18:55:00,
2013-07-23 15:01:00,82.9,72.5,30.09,WSW,247,11.0,-999.0,71,-99.99,,,-99.99,meteohub,2013-07-23 19:01:00,
2013-07-23 15:06:00,82.9,72.5,30.09,West,270,10.0,-999.0,71,-99.99,,,-99.99,meteohub,2013-07-23 19:06:00,
2013-07-23 15:12:00,82.9,73.4,30.09,WSW,247,11.0,-999.0,73,-99.99,,,-99.99,meteohub,2013-07-23 19:12:00,
2013-07-23 15:19:00,82.9,73.0,30.08,WSW,247,13.0,-999.0,72,-99.99,,,-99.99,meteohub,2013-07-23 19:19:00,
2013-07-23 15:25:00,82.9,73.0,30.08,West,270,9.0,-999.0,72,-99.99,,,-99.99,meteohub,2013-07-23 19:25:00,
2013-07-23 15:31:00,82.9,73.0,30.08,WSW,247,9.0,-999.0,72,-99.99,,,-99.99,meteohub,2013-07-23 19:31:00,
2013-07-23 15:37:00,82.9,73.0,30.06,WSW,247,12.0,-999.0,72,-99.99,,,-99.99,meteohub,2013-07-23 19:37:00,
2013-07-23 15:42:00,82.9,73.0,30.08,WSW,247,12.0,-999.0,72,-99.99,,,-99.99,meteohub,2013-07-23 19:42:00,
2013-07-23 15:47:00,82.9,73.0,30.08,West,270,10.0,-999.0,72,-99.99,,,-99.99,meteohub,2013-07-23 19:47:00,
2013-07-23 15:52:00,82.9,73.8,30.08,West,270,9.0,-999.0,74,-99.99,,,-99.99,meteohub,2013-07-23 19:52:00,
2013-07-23 15:57:00,82.9,73.0,30.08,WSW,247,9.0,-999.0,72,-99.99,,,-99.99,meteohub,2013-07-23 19:57:00,
2013-07-23 16:03:00,82.9,74.1,30.08,West,270,11.0,-999.0,75,-99.99,,,-99.99,meteohub,2013-07-23 20:03:00,
2013-07-23 16:09:00,82.9,74.7,30.08,West,270,7.0,-999.0,76,-99.99,,,-99.99,meteohub,2013-07-23 20:09:00,
2013-07-23 16:14:00,82.9,73.0,30.08,WSW,247,11.0,-999.0,72,-99.99,,,-99.99,meteohub,2013-07-23 20:14:00,
2013-07-23 16:20:00,84.0,74.5,30.08,WSW,247,13.0,-999.0,73,-99.99,,,-99.99,meteohub,2013-07-23 20:20:00,
2013-07-23 16:25:00,82.9,72.5,30.08,WSW,247,9.0,-999.0,71,-99.99,,,-99.99,meteohub,2013-07-23 20:25:00,
2013-07-23 16:30:00,84.0,73.9,30.08,West,270,9.0,-999.0,72,-99.99,,,-99.99,meteohub,2013-07-23 20:30:00,
2013-07-23 16:36:00,82.9,71.8,30.08,West,270,12.0,-999.0,69,-99.99,,,-99.99,meteohub,2013-07-23 20:36:00,
2013-07-23 16:41:00,84.0,73.2,30.06,West,270,9.0,-999.0,70,-99.99,,,-99.99,meteohub,2013-07-23 20:41:00,
2013-07-23 16:47:00,84.0,73.9,30.06,WSW,247,10.0,-999.0,72,-99.99,,,-99.99,meteohub,2013-07-23 20:47:00,
2013-07-23 16:52:00,82.9,72.5,30.06,West,270,9.0,-999.0,71,-99.99,,,-99.99,meteohub,2013-07-23 20:52:00,
2013-07-23 16:59:00,84.0,74.5,30.06,West,270,12.0,-999.0,73,-99.99,,,-99.99,meteohub,2013-07-23 20:59:00,
2013-07-23 17:04:00,84.0,73.6,30.06,West,270,12.0,-999.0,71,-99.99,,,-99.99,meteohub,2013-07-23 21:04:00,
2013-07-23 17:12:00,84.0,75.2,30.06,West,270,13.0,-999.0,75,-99.99,,,-99.99,meteohub,2013-07-23 21:12:00,
2013-07-23 17:17:00,84.0,73.6,30.06,WSW,247,8.0,-999.0,71,-99.99,,,-99.99,meteohub,2013-07-23 21:17:00,
2013-07-23 17:22:00,84.0,73.9,30.06,West,270,9.0,-999.0,72,-99.99,,,-99.99,meteohub,2013-07-23 21:22:00,
2013-07-23 17:27:00,84.0,72.7,30.06,West,270,9.0,-999.0,69,-99.99,,,-99.99,meteohub,2013-07-23 21:27:00,
2013-07-23 17:34:00,84.0,73.2,30.04,West,270,4.0,-999.0,70,-99.99,,,-99.99,meteohub,2013-07-23 21:34:00,
2013-07-23 17:39:00,84.0,72.7,30.04,WSW,247,9.0,-999.0,69,-99.99,,,-99.99,meteohub,2013-07-23 21:39:00,
2013-07-23 17:46:00,84.0,73.9,30.04,West,270,8.0,-999.0,72,-99.99,,,-99.99,meteohub,2013-07-23 21:46:00,
2013-07-23 17:52:00,84.0,73.2,30.04,WSW,247,9.0,-999.0,70,-99.99,,,-99.99,meteohub,2013-07-23 21:52:00,
2013-07-23 17:57:00,84.0,72.7,30.04,West,270,9.0,-999.0,69,-99.99,,,-99.99,meteohub,2013-07-23 21:57:00,
2013-07-23 18:02:00,84.0,72.7,30.04,WNW,292,7.0,-999.0,69,-99.99,,,-99.99,meteohub,2013-07-23 22:02:00,
2013-07-23 18:07:00,84.0,72.3,30.04,West,270,10.0,-999.0,68,-99.99,,,-99.99,meteohub,2013-07-23 22:07:00,
2013-07-23 18:13:00,84.0,72.0,30.04,West,270,7.0,-999.0,67,-99.99,,,-99.99,meteohub,2013-07-23 22:13:00,
2013-07-23 18:18:00,84.9,73.2,30.04,West,270,11.0,-999.0,68,-99.99,,,-99.99,meteohub,2013-07-23 22:18:00,
2013-07-23 18:23:00,84.0,73.2,30.04,West,270,10.0,-999.0,70,-99.99,,,-99.99,meteohub,2013-07-23 22:23:00,
2013-07-23 18:28:00,84.9,74.8,30.04,WNW,292,5.0,-999.0,72,-99.99,,,-99.99,meteohub,2013-07-23 22:28:00,
2013-07-23 18:34:00,84.9,73.2,30.04,WNW,292,8.0,-999.0,68,-99.99,,,-99.99,meteohub,2013-07-23 22:34:00,
2013-07-23 18:40:00,84.9,74.1,30.04,NW,315,7.0,-999.0,70,-99.99,,,-99.99,meteohub,2013-07-23 22:40:00,
2013-07-23 18:47:00,84.9,74.8,30.04,West,270,10.0,-999.0,72,-99.99,,,-99.99,meteohub,2013-07-23 22:47:00,
2013-07-23 18:52:00,84.0,73.9,30.04,NW,315,7.0,-999.0,72,-99.99,,,-99.99,meteohub,2013-07-23 22:52:00,
2013-07-23 18:57:00,84.0,73.9,30.04,West,270,6.0,-999.0,72,-99.99,,,-99.99,meteohub,2013-07-23 22:57:00,
2013-07-23 19:03:00,84.0,73.9,30.04,West,270,5.0,-999.0,72,-99.99,,,-99.99,meteohub,2013-07-23 23:03:00,
2013-07-23 19:08:00,84.0,73.2,30.04,West,270,6.0,-999.0,70,-99.99,,,-99.99,meteohub,2013-07-23 23:08:00,
2013-07-23 19:13:00,84.0,73.9,30.04,West,270,9.0,-999.0,72,-99.99,,,-99.99,meteohub,2013-07-23 23:13:00,
2013-07-23 19:18:00,84.0,74.5,30.04,WNW,292,5.0,-999.0,73,-99.99,,,-99.99,meteohub,2013-07-23 23:18:00,
2013-07-23 19:23:00,84.0,73.6,30.04,West,270,7.0,-999.0,71,-99.99,,,-99.99,meteohub,2013-07-23 23:23:00,
2013-07-23 19:28:00,82.9,72.1,30.04,West,270,7.0,-999.0,70,-99.99,,,-99.99,meteohub,2013-07-23 23:28:00,
2013-07-23 19:34:00,82.9,73.0,30.04,West,270,10.0,-999.0,72,-99.99,,,-99.99,meteohub,2013-07-23 23:34:00,
2013-07-23 19:39:00,82.9,72.5,30.04,West,270,7.0,-999.0,71,-99.99,,,-99.99,meteohub,2013-07-23 23:39:00,
2013-07-23 19:44:00,82.9,73.0,30.04,NW,315,6.0,-999.0,72,-99.99,,,-99.99,meteohub,2013-07-23 23:44:00,
2013-07-23 19:49:00,82.9,73.0,30.04,West,270,5.0,-999.0,72,-99.99,,,-99.99,meteohub,2013-07-23 23:49:00,
2013-07-23 19:55:00,82.9,73.0,30.04,WNW,292,6.0,-999.0,72,-99.99,,,-99.99,meteohub,2013-07-23 23:55:00,
2013-07-23 20:02:00,82.0,72.1,30.04,West,270,5.0,-999.0,72,-99.99,,,-99.99,meteohub,2013-07-24 00:02:00,
2013-07-23 20:07:00,82.9,74.7,30.04,NW,315,7.0,-999.0,76,-99.99,,,-99.99,meteohub,2013-07-24 00:07:00,
2013-07-23 20:12:00,82.0,72.9,30.04,WNW,292,8.0,-999.0,74,-99.99,,,-99.99,meteohub,2013-07-24 00:12:00,
2013-07-23 20:17:00,82.0,72.5,30.04,WNW,292,6.0,-999.0,73,-99.99,,,-99.99,meteohub,2013-07-24 00:17:00,
2013-07-23 20:22:00,82.0,72.9,30.04,WNW,292,5.0,-999.0,74,-99.99,,,-99.99,meteohub,2013-07-24 00:22:00,
2013-07-23 20:27:00,82.0,72.9,30.04,WNW,292,6.0,-999.0,74,-99.99,,,-99.99,meteohub,2013-07-24 00:27:00,
2013-07-23 20:32:00,82.0,72.9,30.04,West,270,7.0,-999.0,74,-99.99,,,-99.99,meteohub,2013-07-24 00:32:00,
2013-07-23 20:37:00,82.0,72.9,30.04,West,270,3.0,-999.0,74,-99.99,,,-99.99,meteohub,2013-07-24 00:37:00,
2013-07-23 20:42:00,82.0,74.5,30.04,West,270,4.0,-999.0,78,-99.99,,,-99.99,meteohub,2013-07-24 00:42:00,
2013-07-23 20:47:00,82.0,73.8,30.04,WNW,292,7.0,-999.0,76,-99.99,,,-99.99,meteohub,2013-07-24 00:47:00,
2013-07-23 20:52:00,82.0,73.8,30.04,West,270,7.0,-999.0,76,-99.99,,,-99.99,meteohub,2013-07-24 00:52:00,
2013-07-23 20:57:00,82.0,72.9,30.04,WNW,292,4.0,-999.0,74,-99.99,,,-99.99,meteohub,2013-07-24 00:57:00,
2013-07-23 21:02:00,82.0,73.4,30.04,WNW,292,6.0,-999.0,75,-99.99,,,-99.99,meteohub,2013-07-24 01:02:00,
2013-07-23 21:07:00,82.0,74.1,30.04,West,270,7.0,-999.0,77,-99.99,,,-99.99,meteohub,2013-07-24 01:07:00,
2013-07-23 21:12:00,82.0,73.8,30.04,WNW,292,9.0,-999.0,76,-99.99,,,-99.99,meteohub,2013-07-24 01:12:00,
2013-07-23 21:17:00,82.0,75.2,30.04,WNW,292,4.0,-999.0,80,-99.99,,,-99.99,meteohub,2013-07-24 01:17:00,
2013-07-23 21:22:00,81.0,73.0,30.04,WNW,292,6.0,-999.0,77,-99.99,,,-99.99,meteohub,2013-07-24 01:22:00,
2013-07-23 21:28:00,81.0,73.0,30.04,NW,315,5.0,-999.0,77,-99.99,,,-99.99,meteohub,2013-07-24 01:28:00,
2013-07-23 21:33:00,82.0,73.8,30.04,WSW,247,9.0,-999.0,76,-99.99,,,-99.99,meteohub,2013-07-24 01:33:00,
2013-07-23 21:42:00,82.0,73.4,30.04,West,270,2.0,-999.0,75,-99.99,,,-99.99,meteohub,2013-07-24 01:42:00,
2013-07-23 21:47:00,82.0,73.8,30.04,West,270,7.0,-999.0,76,-99.99,,,-99.99,meteohub,2013-07-24 01:47:00,
2013-07-23 21:52:00,82.0,74.8,30.06,West,270,2.0,-999.0,79,-99.99,,,-99.99,meteohub,2013-07-24 01:52:00,
2013-07-23 21:57:00,82.0,73.8,30.06,West,270,2.0,-999.0,76,-99.99,,,-99.99,meteohub,2013-07-24 01:57:00,
2013-07-23 22:02:00,82.0,73.8,30.06,West,270,3.0,-999.0,76,-99.99,,,-99.99,meteohub,2013-07-24 02:02:00,
2013-07-23 22:07:00,82.0,73.8,30.06,West,270,7.0,-999.0,76,-99.99,,,-99.99,meteohub,2013-07-24 02:07:00,
2013-07-23 22:12:00,82.0,74.1,30.06,WSW,247,6.0,-999.0,77,-99.99,,,-99.99,meteohub,2013-07-24 02:12:00,
2013-07-23 22:17:00,82.0,73.8,30.06,WNW,292,4.0,-999.0,76,-99.99,,,-99.99,meteohub,2013-07-24 02:17:00,
2013-07-23 22:24:00,82.0,73.8,30.06,West,270,6.0,-999.0,76,-99.99,,,-99.99,meteohub,2013-07-24 02:24:00,
2013-07-23 22:29:00,82.0,73.8,30.06,West,270,7.0,-999.0,76,-99.99,,,-99.99,meteohub,2013-07-24 02:29:00,
2013-07-23 22:37:00,82.0,72.9,30.06,SW,225,7.0,-999.0,74,-99.99,,,-99.99,meteohub,2013-07-24 02:37:00,
2013-07-23 22:42:00,82.0,73.4,30.06,West,270,8.0,-999.0,75,-99.99,,,-99.99,meteohub,2013-07-24 02:42:00,
2013-07-23 22:47:00,82.0,73.8,30.06,West,270,8.0,-999.0,76,-99.99,,,-99.99,meteohub,2013-07-24 02:47:00,
2013-07-23 22:52:00,82.0,73.8,30.06,WSW,247,4.0,-999.0,76,-99.99,,,-99.99,meteohub,2013-07-24 02:52:00,
2013-07-23 22:57:00,82.0,73.8,30.08,West,270,9.0,-999.0,76,-99.99,,,-99.99,meteohub,2013-07-24 02:57:00,
2013-07-23 23:02:00,82.0,74.8,30.08,West,270,7.0,-999.0,79,-99.99,,,-99.99,meteohub,2013-07-24 03:02:00,
2013-07-23 23:07:00,82.0,73.8,30.08,West,270,9.0,-999.0,76,-99.99,,,-99.99,meteohub,2013-07-24 03:07:00,
2013-07-23 23:12:00,82.0,73.4,30.08,WSW,247,7.0,-999.0,75,-99.99,,,-99.99,meteohub,2013-07-24 03:12:00,
2013-07-23 23:17:00,82.0,74.1,30.08,WSW,247,9.0,-999.0,77,-99.99,,,-99.99,meteohub,2013-07-24 03:17:00,
2013-07-23 23:24:00,82.0,73.8,30.08,West,270,9.0,-999.0,76,-99.99,,,-99.99,meteohub,2013-07-24 03:24:00,
2013-07-23 23:30:00,82.0,73.8,30.08,West,270,11.0,-999.0,76,-99.99,,,-99.99,meteohub,2013-07-24 03:30:00,
2013-07-23 23:37:00,82.0,75.2,30.08,West,270,5.0,-999.0,80,-99.99,,,-99.99,meteohub,2013-07-24 03:37:00,
2013-07-23 23:42:00,82.0,73.8,30.08,WSW,247,9.0,-999.0,76,-99.99,,,-99.99,meteohub,2013-07-24 03:42:00,
2013-07-23 23:47:00,82.0,72.9,30.08,West,270,9.0,-999.0,74,-99.99,,,-99.99,meteohub,2013-07-24 03:47:00,
2013-07-23 23:52:00,82.0,73.4,30.08,West,270,7.0,-999.0,75,-99.99,,,-99.99,meteohub,2013-07-24 03:52:00,
2013-07-23 23:57:00,82.0,73.8,30.09,West,270,4.0,-999.0,76,-99.99,,,-99.99,meteohub,2013-07-24 03:57:00,